Time;durP1;ratioP1;P1;durP2;ratioP2;P2;SDS_P1;SDS_P2;PMS_P1;PMS_P2;Temp;Humidity;BMP_temperature;BMP_pressure;BME280_temperature;BME280_humidity;BME280_pressure;Samples;Min_cycle;Max_cycle;Signal;HPM_P1;HPM_P2
2021/06/07 00:02:08;;;;;;;4.35;3.78;;;17.10;99.90;;;;;;5017081;28;20026;-72
2021/06/07 00:04:34;;;;;;;5.70;4.07;;;17.00;99.90;;;;;;5016995;28;20474;-73
2021/06/07 00:07:00;;;;;;;7.93;4.13;;;17.00;99.90;;;;;;5017109;28;20036;-73
2021/06/07 00:09:27;;;;;;;5.80;4.32;;;17.00;99.90;;;;;;5015923;28;20151;-73
2021/06/07 00:11:57;;;;;;;5.45;4.50;;;17.00;99.90;;;;;;5012436;28;20038;-73
2021/06/07 00:14:28;;;;;;;8.73;4.13;;;17.00;99.90;;;;;;5015315;28;20026;-73
2021/06/07 00:16:54;;;;;;;6.88;4.45;;;16.90;99.90;;;;;;5013533;28;20455;-73
2021/06/07 00:19:20;;;;;;;5.97;4.22;;;16.90;99.90;;;;;;5015713;28;20105;-73
2021/06/07 00:21:47;;;;;;;8.95;4.55;;;16.90;99.90;;;;;;5017899;28;20070;-73
2021/06/07 00:24:16;;;;;;;6.40;4.45;;;16.90;99.90;;;;;;5016845;28;20025;-73
2021/06/07 00:26:42;;;;;;;9.25;4.78;;;16.80;99.90;;;;;;5025170;28;20049;-72
2021/06/07 00:29:08;;;;;;;7.10;5.05;;;16.80;99.90;;;;;;5017884;28;20453;-72
2021/06/07 00:31:35;;;;;;;7.10;4.60;;;16.70;99.90;;;;;;5020736;28;20522;-73
2021/06/07 00:34:01;;;;;;;8.10;5.45;;;16.80;99.90;;;;;;5019427;28;20533;-73
2021/06/07 00:36:26;;;;;;;7.07;5.35;;;16.70;99.90;;;;;;5018172;28;20037;-73
2021/06/07 00:38:53;;;;;;;7.35;4.72;;;16.70;99.90;;;;;;5015978;28;20480;-73
2021/06/07 00:41:20;;;;;;;8.88;5.22;;;16.70;99.90;;;;;;5019419;28;20518;-73
2021/06/07 00:43:57;;;;;;;6.07;4.88;;;16.60;99.90;;;;;;5014116;28;20493;-73
2021/06/07 00:46:23;;;;;;;7.07;5.20;;;16.60;99.90;;;;;;5020967;28;20018;-73
2021/06/07 00:48:49;;;;;;;8.93;5.40;;;16.60;99.90;;;;;;5013769;28;20493;-73
2021/06/07 00:51:15;;;;;;;9.73;5.47;;;16.60;99.90;;;;;;5017358;28;20021;-73
2021/06/07 00:53:41;;;;;;;7.43;5.63;;;16.60;99.90;;;;;;5014409;28;20087;-73
2021/06/07 00:56:09;;;;;;;9.93;5.55;;;16.50;99.90;;;;;;5018282;28;20029;-73
2021/06/07 00:58:37;;;;;;;6.40;5.28;;;16.50;99.90;;;;;;5025410;28;20013;-75
2021/06/07 01:01:06;;;;;;;7.95;6.45;;;16.50;99.90;;;;;;5021006;28;20394;-74
2021/06/07 01:03:33;;;;;;;6.80;5.20;;;16.40;99.90;;;;;;5016543;28;20056;-74
2021/06/07 01:05:59;;;;;;;9.13;6.03;;;16.30;99.90;;;;;;5021543;28;20029;-75
2021/06/07 01:08:25;;;;;;;7.13;5.38;;;16.30;99.90;;;;;;5015553;28;20026;-75
2021/06/07 01:10:52;;;;;;;7.70;5.38;;;16.30;99.90;;;;;;5023303;28;20045;-75
2021/06/07 01:13:19;;;;;;;9.95;5.93;;;16.20;99.90;;;;;;5017437;28;20470;-75
2021/06/07 01:15:47;;;;;;;12.93;5.72;;;16.30;99.90;;;;;;5019293;28;20033;-74
2021/06/07 01:18:18;;;;;;;7.78;6.97;;;16.20;99.90;;;;;;5021383;28;20022;-73
2021/06/07 01:20:44;;;;;;;8.48;5.75;;;16.20;99.90;;;;;;5015663;28;20030;-73
2021/06/07 01:23:10;;;;;;;8.73;5.55;;;16.20;99.90;;;;;;5014777;28;20045;-73
2021/06/07 01:25:39;;;;;;;8.88;6.35;;;16.20;99.90;;;;;;5020268;28;20028;-73
2021/06/07 01:28:07;;;;;;;9.30;6.80;;;16.10;99.90;;;;;;5017409;28;20286;-72
2021/06/07 01:30:36;;;;;;;11.30;6.55;;;16.10;99.90;;;;;;5014819;28;20112;-73
2021/06/07 01:33:04;;;;;;;8.77;6.28;;;16.10;99.90;;;;;;5013958;28;20043;-72
2021/06/07 01:35:30;;;;;;;13.23;6.47;;;16.00;99.90;;;;;;5016731;28;20052;-72
2021/06/07 01:37:56;;;;;;;9.85;6.80;;;16.00;99.90;;;;;;5016830;28;20029;-73
2021/06/07 01:40:26;;;;;;;9.05;6.20;;;16.00;99.90;;;;;;5013311;28;20079;-73
2021/06/07 01:42:52;;;;;;;11.93;6.18;;;16.00;99.90;;;;;;5012691;28;20038;-73
2021/06/07 01:45:21;;;;;;;8.48;6.18;;;16.00;99.90;;;;;;5012919;28;20068;-72
2021/06/07 01:47:47;;;;;;;9.90;7.05;;;16.00;99.90;;;;;;5016031;28;20037;-73
2021/06/07 01:50:14;;;;;;;10.90;6.95;;;15.90;99.90;;;;;;5015066;28;20022;-73
2021/06/07 01:52:46;;;;;;;9.38;6.75;;;15.90;99.90;;;;;;5017238;28;20029;-73
2021/06/07 01:55:13;;;;;;;13.38;6.53;;;15.90;99.90;;;;;;5018352;28;20033;-72
2021/06/07 01:57:41;;;;;;;10.93;6.15;;;15.80;99.90;;;;;;5016194;28;20037;-72
2021/06/07 02:00:11;;;;;;;7.40;6.00;;;15.80;99.90;;;;;;5016544;28;20044;-73
2021/06/07 02:02:45;;;;;;;7.90;7.18;;;15.80;99.90;;;;;;5016479;28;20057;-73
2021/06/07 02:05:13;;;;;;;11.10;7.13;;;15.80;99.90;;;;;;5019434;28;20067;-73
2021/06/07 02:07:44;;;;;;;8.75;6.93;;;15.70;99.90;;;;;;5018682;28;20026;-73
2021/06/07 02:10:11;;;;;;;11.48;7.47;;;15.70;99.90;;;;;;5014225;28;20033;-73
2021/06/07 02:12:37;;;;;;;8.23;7.40;;;15.70;99.90;;;;;;5018407;28;20108;-73
2021/06/07 02:15:05;;;;;;;9.57;7.50;;;15.70;99.90;;;;;;5023335;28;20105;-73
2021/06/07 02:17:31;;;;;;;7.95;7.22;;;15.60;99.90;;;;;;5015666;28;20829;-73
2021/06/07 02:19:56;;;;;;;11.48;7.72;;;15.60;99.90;;;;;;5015776;28;20108;-74
2021/06/07 02:22:22;;;;;;;7.60;6.80;;;15.60;99.90;;;;;;5013634;28;20029;-75
2021/06/07 02:24:48;;;;;;;14.32;8.30;;;15.50;99.90;;;;;;5010898;28;20104;-74
2021/06/07 02:27:13;;;;;;;10.55;7.15;;;15.60;99.90;;;;;;5013679;28;20026;-74
2021/06/07 02:29:39;;;;;;;9.57;7.30;;;15.50;99.90;;;;;;5016752;28;20068;-74
2021/06/07 02:32:04;;;;;;;13.15;7.03;;;15.50;99.90;;;;;;5015414;28;20025;-74
2021/06/07 02:34:30;;;;;;;13.57;9.30;;;15.50;99.90;;;;;;5014134;28;20029;-74
2021/06/07 02:36:56;;;;;;;13.63;8.63;;;15.40;99.90;;;;;;5012815;28;20022;-74
2021/06/07 02:39:23;;;;;;;11.95;8.32;;;15.40;99.90;;;;;;5019020;28;20076;-73
2021/06/07 02:41:49;;;;;;;11.40;8.18;;;15.30;99.90;;;;;;5015106;28;20041;-74
2021/06/07 02:44:20;;;;;;;9.15;8.25;;;15.30;99.90;;;;;;5015658;28;20032;-74
2021/06/07 02:46:46;;;;;;;12.70;8.27;;;15.30;99.90;;;;;;5024004;28;20033;-74
2021/06/07 02:49:11;;;;;;;12.65;8.27;;;15.30;99.90;;;;;;5018576;28;20471;-74
2021/06/07 02:51:37;;;;;;;10.43;8.15;;;15.30;99.90;;;;;;5017378;28;20374;-74
2021/06/07 02:54:03;;;;;;;11.90;8.00;;;15.30;99.90;;;;;;5025081;28;20029;-74
2021/06/07 02:56:29;;;;;;;9.77;8.27;;;15.30;99.90;;;;;;5022533;28;20067;-74
2021/06/07 02:58:54;;;;;;;11.10;8.75;;;15.30;99.90;;;;;;5017898;28;20325;-74
2021/06/07 03:01:20;;;;;;;10.75;7.85;;;15.30;99.90;;;;;;5023029;28;20032;-74
2021/06/07 03:03:45;;;;;;;8.70;7.22;;;15.20;99.90;;;;;;5026038;28;20080;-75
2021/06/07 03:06:11;;;;;;;8.68;7.78;;;15.20;99.90;;;;;;5022821;28;20382;-75
2021/06/07 03:08:37;;;;;;;8.35;7.47;;;15.20;99.90;;;;;;5023576;28;20060;-73
2021/06/07 03:11:07;;;;;;;9.68;8.63;;;15.20;99.90;;;;;;5016498;28;20473;-74
2021/06/07 03:13:33;;;;;;;10.10;8.15;;;15.20;99.90;;;;;;5020663;28;20426;-74
2021/06/07 03:16:00;;;;;;;9.95;8.02;;;15.10;99.90;;;;;;5018032;28;20026;-74
2021/06/07 03:18:26;;;;;;;8.52;7.18;;;15.10;99.90;;;;;;5021909;28;20022;-75
2021/06/07 03:20:52;;;;;;;10.55;8.23;;;15.00;99.90;;;;;;5018509;28;20026;-75
2021/06/07 03:23:21;;;;;;;10.68;8.82;;;15.00;99.90;;;;;;5015188;28;20038;-74
2021/06/07 03:25:49;;;;;;;11.77;7.40;;;15.00;99.90;;;;;;5014628;28;20026;-74
2021/06/07 03:28:16;;;;;;;13.20;7.43;;;15.00;99.90;;;;;;5017074;28;20542;-74
2021/06/07 03:30:42;;;;;;;11.73;8.77;;;15.00;99.90;;;;;;5020191;28;20470;-74
2021/06/07 03:33:10;;;;;;;8.60;7.70;;;14.90;99.90;;;;;;5016941;28;20067;-74
2021/06/07 03:35:38;;;;;;;12.80;9.25;;;15.00;99.90;;;;;;5015330;28;20026;-74
2021/06/07 03:38:04;;;;;;;12.23;8.60;;;14.90;99.90;;;;;;5018071;28;20025;-74
2021/06/07 03:40:34;;;;;;;12.13;8.35;;;14.90;99.90;;;;;;5017773;28;20108;-74
2021/06/07 03:43:00;;;;;;;11.25;9.30;;;14.80;99.90;;;;;;5014099;28;20044;-74
2021/06/07 03:45:26;;;;;;;14.43;9.60;;;14.80;99.90;;;;;;5018038;28;20025;-74
2021/06/07 03:47:52;;;;;;;11.00;8.55;;;14.80;99.90;;;;;;5021591;28;20034;-74
2021/06/07 03:50:21;;;;;;;12.65;9.13;;;14.80;99.90;;;;;;5024139;28;20100;-75
2021/06/07 03:52:47;;;;;;;12.27;8.85;;;14.80;99.90;;;;;;5022055;28;20026;-75
2021/06/07 03:55:15;;;;;;;12.27;9.13;;;14.80;99.90;;;;;;5018189;28;20026;-75
2021/06/07 03:57:42;;;;;;;12.25;8.25;;;14.80;99.90;;;;;;5017402;28;20515;-73
2021/06/07 04:00:10;;;;;;;13.00;9.00;;;14.80;99.90;;;;;;5018555;28;20026;-74
2021/06/07 04:02:36;;;;;;;13.98;9.10;;;14.80;99.90;;;;;;5023469;28;20029;-74
2021/06/07 04:05:02;;;;;;;11.80;9.75;;;14.80;99.90;;;;;;5017207;28;20056;-74
2021/06/07 04:07:28;;;;;;;11.10;9.55;;;14.70;99.90;;;;;;5015301;28;20101;-74
2021/06/07 04:09:53;;;;;;;18.08;9.40;;;14.70;99.90;;;;;;5020890;28;20112;-75
2021/06/07 04:12:19;;;;;;;11.13;9.30;;;14.80;99.90;;;;;;5021291;28;20033;-74
2021/06/07 04:14:44;;;;;;;12.85;8.82;;;14.80;99.90;;;;;;5022210;28;20071;-74
2021/06/07 04:17:10;;;;;;;12.23;10.05;;;14.70;99.90;;;;;;5024012;28;20034;-74
2021/06/07 04:19:36;;;;;;;12.95;9.93;;;14.70;99.90;;;;;;5012215;28;20076;-74
2021/06/07 04:22:02;;;;;;;10.30;9.30;;;14.70;99.90;;;;;;5016426;28;20104;-74
2021/06/07 04:24:28;;;;;;;13.73;10.18;;;14.70;99.90;;;;;;5020014;28;20364;-74
2021/06/07 04:26:54;;;;;;;13.30;9.32;;;14.70;99.90;;;;;;5018921;28;20052;-74
2021/06/07 04:29:19;;;;;;;14.40;10.07;;;14.70;99.90;;;;;;5023866;28;20071;-74
2021/06/07 04:31:45;;;;;;;12.70;9.40;;;14.80;99.90;;;;;;5022503;28;20052;-74
2021/06/07 04:34:11;;;;;;;11.88;10.02;;;14.80;99.90;;;;;;5016420;28;20084;-75
2021/06/07 04:36:37;;;;;;;13.52;10.13;;;14.80;99.90;;;;;;5016321;28;20018;-74
2021/06/07 04:39:05;;;;;;;12.77;10.88;;;14.80;99.90;;;;;;5014290;28;20117;-74
2021/06/07 04:41:31;;;;;;;15.90;11.32;;;14.80;99.90;;;;;;5016912;28;20044;-74
2021/06/07 04:43:56;;;;;;;16.13;11.57;;;14.90;99.90;;;;;;5018796;28;20460;-74
2021/06/07 04:46:22;;;;;;;14.13;11.48;;;14.90;99.90;;;;;;5019676;28;20462;-75
2021/06/07 04:48:47;;;;;;;15.93;11.57;;;14.90;99.90;;;;;;5016669;28;20036;-74
2021/06/07 04:51:13;;;;;;;15.35;11.10;;;15.00;99.90;;;;;;5015559;28;20014;-75
2021/06/07 04:53:39;;;;;;;14.25;11.10;;;15.00;99.90;;;;;;5019788;28;20489;-74
2021/06/07 04:56:05;;;;;;;15.23;11.05;;;15.00;99.90;;;;;;5014025;28;20036;-74
2021/06/07 04:58:31;;;;;;;16.70;10.98;;;15.10;99.90;;;;;;5015253;28;20018;-75
2021/06/07 05:01:06;;;;;;;15.38;11.73;;;15.20;99.90;;;;;;5014580;28;20025;-75
2021/06/07 05:03:32;;;;;;;13.15;11.15;;;15.20;99.90;;;;;;5015388;28;20033;-74
2021/06/07 05:05:59;;;;;;;17.25;12.40;;;15.20;99.90;;;;;;5016461;28;20044;-74
2021/06/07 05:08:27;;;;;;;13.82;11.48;;;15.10;99.90;;;;;;5017030;28;20025;-75
2021/06/07 05:10:52;;;;;;;14.20;11.27;;;15.00;99.90;;;;;;5018287;28;20030;-74
2021/06/07 05:13:18;;;;;;;20.48;13.35;;;15.00;99.90;;;;;;5015626;28;20056;-74
2021/06/07 05:15:44;;;;;;;15.60;12.57;;;15.10;99.90;;;;;;5014113;28;20026;-74
2021/06/07 05:18:11;;;;;;;16.30;13.10;;;15.10;99.90;;;;;;5011483;28;20494;-73
2021/06/07 05:20:37;;;;;;;15.90;12.40;;;15.10;99.90;;;;;;5014257;28;20080;-74
2021/06/07 05:23:04;;;;;;;16.25;12.57;;;15.20;99.90;;;;;;5015183;28;20038;-74
2021/06/07 05:25:32;;;;;;;16.75;13.18;;;15.20;99.90;;;;;;5016476;28;20470;-74
2021/06/07 05:28:00;;;;;;;17.52;12.93;;;15.20;99.90;;;;;;5013724;28;20491;-75
2021/06/07 05:30:27;;;;;;;17.98;13.32;;;15.30;99.90;;;;;;5013385;28;20060;-74
2021/06/07 05:32:54;;;;;;;16.02;12.20;;;15.30;99.90;;;;;;5016796;28;20042;-73
2021/06/07 05:35:21;;;;;;;15.25;13.13;;;15.30;99.90;;;;;;5021152;28;20434;-73
2021/06/07 05:37:47;;;;;;;18.27;13.35;;;15.40;99.90;;;;;;5015473;28;20053;-73
2021/06/07 05:40:14;;;;;;;17.67;13.60;;;15.30;99.90;;;;;;5020864;28;20050;-73
2021/06/07 05:42:41;;;;;;;14.57;13.02;;;15.30;99.90;;;;;;5014087;28;20621;-73
2021/06/07 05:45:09;;;;;;;14.32;12.20;;;15.40;99.90;;;;;;5017431;28;20040;-73
2021/06/07 05:47:35;;;;;;;14.45;12.07;;;15.30;99.90;;;;;;5012503;28;20083;-73
2021/06/07 05:50:01;;;;;;;14.70;12.38;;;15.40;99.90;;;;;;5018125;28;20036;-72
2021/06/07 05:52:27;;;;;;;16.02;12.18;;;15.40;99.90;;;;;;5014812;28;20026;-73
2021/06/07 05:54:53;;;;;;;20.92;11.68;;;15.50;99.90;;;;;;5014691;28;20037;-73
2021/06/07 05:57:18;;;;;;;12.68;11.00;;;15.50;99.90;;;;;;5014473;28;20026;-73
2021/06/07 05:59:44;;;;;;;13.52;10.82;;;15.50;99.90;;;;;;5018756;28;20030;-73
2021/06/07 06:02:10;;;;;;;10.93;9.63;;;15.60;99.90;;;;;;5016547;28;20498;-73
2021/06/07 06:04:40;;;;;;;9.15;8.18;;;15.60;99.90;;;;;;5017887;28;20395;-73
2021/06/07 06:07:06;;;;;;;13.95;11.13;;;15.60;99.90;;;;;;5014205;28;20029;-73
2021/06/07 06:09:32;;;;;;;13.35;9.63;;;15.60;99.90;;;;;;5014461;28;20029;-73
2021/06/07 06:11:58;;;;;;;12.77;8.98;;;15.70;99.90;;;;;;5019182;28;20037;-73
2021/06/07 06:14:28;;;;;;;12.75;8.95;;;15.60;99.90;;;;;;5020156;28;20492;-73
2021/06/07 06:16:54;;;;;;;12.60;9.05;;;15.70;99.90;;;;;;5019306;28;20069;-72
2021/06/07 06:19:22;;;;;;;12.05;8.20;;;15.70;99.90;;;;;;5019879;28;20083;-73
2021/06/07 06:21:48;;;;;;;11.00;9.15;;;15.80;99.90;;;;;;5019273;28;20153;-73
2021/06/07 06:24:15;;;;;;;11.25;9.18;;;15.70;99.90;;;;;;5017833;28;20042;-73
2021/06/07 06:26:41;;;;;;;12.88;9.20;;;15.80;99.90;;;;;;5020347;28;20478;-72
2021/06/07 06:29:08;;;;;;;12.80;9.35;;;15.80;99.90;;;;;;5016301;28;20034;-73
2021/06/07 06:31:34;;;;;;;13.25;9.23;;;15.80;99.90;;;;;;5019361;28;20363;-77
2021/06/07 06:34:01;;;;;;;10.95;8.63;;;15.80;99.90;;;;;;5018948;28;20018;-73
2021/06/07 06:36:27;;;;;;;15.68;9.40;;;15.90;99.90;;;;;;5017213;28;20018;-72
2021/06/07 06:38:53;;;;;;;12.38;9.30;;;16.00;99.90;;;;;;5018526;28;20030;-72
2021/06/07 06:41:19;;;;;;;11.20;8.88;;;16.20;99.90;;;;;;5021691;28;20383;-72
2021/06/07 06:43:44;;;;;;;12.05;8.45;;;16.30;99.90;;;;;;5020535;28;20046;-72
2021/06/07 06:46:10;;;;;;;9.80;8.20;;;16.40;99.90;;;;;;5020817;28;20528;-72
2021/06/07 06:48:36;;;;;;;12.60;8.32;;;16.50;99.90;;;;;;5022330;28;20026;-72
2021/06/07 06:51:03;;;;;;;12.75;8.55;;;16.60;99.90;;;;;;5022269;28;20021;-72
2021/06/07 06:53:28;;;;;;;12.02;8.40;;;16.80;99.90;;;;;;5014385;28;20422;-73
2021/06/07 06:55:55;;;;;;;10.90;8.13;;;16.80;99.90;;;;;;5015905;28;20037;-72
2021/06/07 06:58:20;;;;;;;12.57;8.88;;;16.90;99.90;;;;;;5021042;28;20018;-72
2021/06/07 07:00:47;;;;;;;11.45;8.50;;;17.10;99.90;;;;;;5015611;28;20025;-73
2021/06/07 07:03:18;;;;;;;13.25;9.00;;;17.20;99.90;;;;;;5019535;28;20486;-73
2021/06/07 07:05:46;;;;;;;10.77;7.07;;;17.30;99.90;;;;;;5022456;28;20052;-72
2021/06/07 07:08:12;;;;;;;48.67;15.25;;;17.30;99.90;;;;;;5018272;28;20029;-73
2021/06/07 07:10:41;;;;;;;16.88;10.10;;;17.40;99.90;;;;;;5020258;28;20026;-73
2021/06/07 07:13:07;;;;;;;14.43;9.18;;;17.50;99.90;;;;;;5018568;28;20524;-73
2021/06/07 07:15:33;;;;;;;12.07;10.25;;;17.60;99.90;;;;;;5019464;28;20022;-73
2021/06/07 07:17:59;;;;;;;12.82;10.00;;;17.70;99.90;;;;;;5018228;28;20034;-72
2021/06/07 07:20:25;;;;;;;13.85;10.05;;;17.80;99.90;;;;;;5017200;28;20022;-73
2021/06/07 07:22:51;;;;;;;12.90;10.07;;;17.90;99.90;;;;;;5021977;28;20103;-74
2021/06/07 07:25:17;;;;;;;18.52;10.32;;;18.10;99.90;;;;;;5016686;28;20437;-75
2021/06/07 07:27:43;;;;;;;13.88;9.93;;;18.20;99.90;;;;;;5016092;28;20026;-74
2021/06/07 07:30:12;;;;;;;16.58;10.23;;;18.20;99.90;;;;;;5018489;28;20119;-74
2021/06/07 07:32:40;;;;;;;12.48;11.02;;;18.30;99.90;;;;;;5019107;28;20102;-75
2021/06/07 07:35:06;;;;;;;15.35;10.40;;;18.30;99.90;;;;;;5016874;28;20014;-75
2021/06/07 07:37:34;;;;;;;13.90;9.60;;;18.40;99.90;;;;;;5002042;28;20132;-72
2021/06/07 07:40:01;;;;;;;12.88;9.38;;;18.50;99.90;;;;;;4992727;28;20466;-74
2021/06/07 07:42:28;;;;;;;15.50;9.32;;;18.60;99.90;;;;;;5017245;28;20049;-74
2021/06/07 07:44:53;;;;;;;13.90;9.07;;;18.70;99.90;;;;;;5020139;28;20054;-74
2021/06/07 07:47:20;;;;;;;12.93;10.10;;;18.80;99.90;;;;;;5016630;28;20498;-73
2021/06/07 07:49:46;;;;;;;13.48;9.75;;;18.80;99.90;;;;;;5019361;28;20018;-74
2021/06/07 07:52:12;;;;;;;11.80;9.02;;;18.90;99.90;;;;;;5006535;28;20026;-75
2021/06/07 07:54:37;;;;;;;16.10;8.82;;;19.00;99.90;;;;;;5025130;28;20026;-74
2021/06/07 07:57:05;;;;;;;13.05;8.98;;;19.00;99.90;;;;;;5021512;28;20030;-74
2021/06/07 07:59:31;;;;;;;11.38;9.65;;;19.00;99.90;;;;;;5019692;28;20025;-75
2021/06/07 08:01:56;;;;;;;11.35;9.68;;;19.00;99.90;;;;;;5024484;28;20075;-75
2021/06/07 08:04:22;;;;;;;11.65;9.70;;;19.10;99.90;;;;;;5013654;28;20029;-74
2021/06/07 08:06:48;;;;;;;15.23;9.55;;;19.10;99.90;;;;;;5015630;28;20064;-74
2021/06/07 08:09:14;;;;;;;10.85;8.95;;;19.20;99.90;;;;;;5021178;28;20113;-74
2021/06/07 08:11:40;;;;;;;11.55;9.60;;;19.30;99.90;;;;;;5021951;28;20474;-73
2021/06/07 08:14:05;;;;;;;11.55;9.02;;;19.40;99.90;;;;;;5021736;28;20032;-73
2021/06/07 08:16:31;;;;;;;11.43;8.15;;;19.50;99.90;;;;;;5023570;28;20018;-74
2021/06/07 08:18:57;;;;;;;12.10;8.63;;;19.50;99.90;;;;;;5019253;28;20029;-74
2021/06/07 08:21:23;;;;;;;13.65;9.32;;;19.70;99.90;;;;;;5019489;28;20359;-74
2021/06/07 08:23:49;;;;;;;10.32;9.20;;;19.80;99.90;;;;;;5016887;28;20048;-75
2021/06/07 08:26:14;;;;;;;12.10;9.98;;;19.80;99.90;;;;;;5015719;28;20104;-75
2021/06/07 08:28:40;;;;;;;12.05;10.50;;;19.70;99.90;;;;;;5017212;28;20034;-75
2021/06/07 08:31:06;;;;;;;11.15;9.82;;;19.60;99.90;;;;;;5013057;28;20021;-74
2021/06/07 08:33:35;;;;;;;10.68;9.18;;;19.70;99.90;;;;;;5012736;28;20037;-73
2021/06/07 08:36:04;;;;;;;13.95;9.18;;;19.80;99.90;;;;;;5018942;28;20026;-71
2021/06/07 08:38:30;;;;;;;10.88;8.70;;;20.00;99.90;;;;;;5020658;28;20071;-72
2021/06/07 08:40:56;;;;;;;10.43;8.57;;;20.00;99.90;;;;;;5014583;28;20037;-71
2021/06/07 08:43:23;;;;;;;13.90;9.60;;;20.20;99.90;;;;;;5019072;28;20052;-71
2021/06/07 08:45:49;;;;;;;9.75;8.75;;;20.30;99.90;;;;;;5017246;28;20048;-73
2021/06/07 08:48:15;;;;;;;11.25;10.10;;;20.40;99.90;;;;;;5017181;28;20026;-72
2021/06/07 08:50:41;;;;;;;11.55;9.57;;;20.40;99.90;;;;;;5014002;28;20041;-71
2021/06/07 08:53:07;;;;;;;10.85;9.77;;;20.40;99.90;;;;;;5015577;28;20026;-71
2021/06/07 08:55:34;;;;;;;14.55;9.85;;;20.50;99.90;;;;;;5012862;28;20080;-71
2021/06/07 08:58:02;;;;;;;11.70;10.48;;;20.60;99.90;;;;;;5019240;28;20033;-71
2021/06/07 09:00:32;;;;;;;13.95;9.27;;;20.60;99.90;;;;;;5017730;28;20049;-71
2021/06/07 09:03:03;;;;;;;12.40;9.48;;;20.80;99.90;;;;;;5021241;28;20116;-71
2021/06/07 09:05:30;;;;;;;12.27;10.93;;;20.70;99.90;;;;;;5021333;28;20037;-71
2021/06/07 09:08:16;;;;;;;13.27;10.57;;;20.70;99.90;;;;;;5016719;28;20034;-71
2021/06/07 09:10:50;;;;;;;11.30;9.32;;;20.70;99.90;;;;;;5015272;28;20033;-71
2021/06/07 09:13:17;;;;;;;11.45;9.30;;;20.80;99.90;;;;;;5011341;28;20053;-72
2021/06/07 09:15:51;;;;;;;9.80;8.40;;;20.80;99.90;;;;;;5015848;28;20398;-71
2021/06/07 09:18:30;;;;;;;10.77;8.52;;;20.90;99.90;;;;;;5020036;28;20029;-71
2021/06/07 09:21:04;;;;;;;8.40;7.60;;;21.10;99.90;;;;;;5014627;28;20101;-71
2021/06/07 09:23:48;;;;;;;9.30;7.63;;;21.30;99.90;;;;;;5019095;28;20029;-71
2021/06/07 09:26:27;;;;;;;10.85;8.02;;;21.10;99.90;;;;;;5017979;28;20025;-71
2021/06/07 09:28:59;;;;;;;10.50;6.05;;;21.20;99.90;;;;;;5017042;28;20030;-72
2021/06/07 09:31:35;;;;;;;7.60;6.00;;;21.20;99.90;;;;;;5021432;28;20467;-71
2021/06/07 09:34:06;;;;;;;9.60;6.13;;;21.30;99.90;;;;;;5015150;28;20026;-71
2021/06/07 09:36:33;;;;;;;7.38;5.90;;;21.40;99.90;;;;;;5016653;28;20080;-71
2021/06/07 09:39:24;;;;;;;5.47;4.97;;;21.40;99.90;;;;;;5016668;28;20034;-72
2021/06/07 09:41:56;;;;;;;6.57;4.25;;;21.40;99.90;;;;;;5014240;28;20534;-71
2021/06/07 09:44:32;;;;;;;6.65;4.35;;;21.30;99.90;;;;;;5013159;28;20030;-71
2021/06/07 09:47:18;;;;;;;10.57;4.65;;;21.60;99.90;;;;;;5011895;28;20037;-72
2021/06/07 09:49:48;;;;;;;5.03;4.43;;;21.60;99.90;;;;;;5016157;28;20021;-71
2021/06/07 09:52:28;;;;;;;5.93;4.05;;;21.50;99.90;;;;;;5012808;28;20088;-71
2021/06/07 09:55:17;;;;;;;4.60;4.18;;;21.60;99.90;;;;;;5020547;28;20108;-71
2021/06/07 09:57:50;;;;;;;4.85;4.05;;;21.90;99.90;;;;;;5020270;28;20084;-72
2021/06/07 10:00:47;;;;;;;5.15;4.20;;;22.10;99.90;;;;;;5016231;28;20109;-71
2021/06/07 10:03:29;;;;;;;6.85;4.80;;;22.30;99.90;;;;;;5015747;28;20030;-71
2021/06/07 10:06:00;;;;;;;6.60;5.13;;;22.50;99.90;;;;;;5020967;28;20466;-71
2021/06/07 10:08:40;;;;;;;4.78;4.03;;;22.40;99.90;;;;;;5020292;28;20029;-71
2021/06/07 10:11:23;;;;;;;5.82;4.57;;;22.60;99.90;;;;;;5021008;28;20022;-71
2021/06/07 10:13:52;;;;;;;4.93;4.50;;;22.80;99.90;;;;;;5019031;28;20061;-71
2021/06/07 10:16:20;;;;;;;7.15;4.45;;;22.90;99.90;;;;;;5017236;28;20025;-71
2021/06/07 10:18:45;;;;;;;5.28;4.18;;;22.80;99.90;;;;;;5018735;28;20018;-71
2021/06/07 10:21:11;;;;;;;5.97;3.70;;;22.90;99.90;;;;;;5016121;28;20433;-71
2021/06/07 10:23:38;;;;;;;4.97;4.50;;;23.10;99.90;;;;;;5019459;28;20034;-71
2021/06/07 10:26:05;;;;;;;5.28;4.30;;;23.00;99.90;;;;;;5017514;28;20916;-71
2021/06/07 10:28:37;;;;;;;4.72;4.32;;;23.10;99.90;;;;;;5015094;28;20030;-71
2021/06/07 10:31:16;;;;;;;6.78;4.05;;;23.20;99.90;;;;;;5013412;28;20111;-72
2021/06/07 10:33:43;;;;;;;4.75;3.67;;;23.50;99.90;;;;;;5019951;28;20101;-71
2021/06/07 10:36:21;;;;;;;4.25;3.83;;;23.60;99.90;;;;;;5024059;28;20026;-71
2021/06/07 10:38:48;;;;;;;4.78;4.18;;;23.80;99.90;;;;;;5022149;28;20116;-71
2021/06/07 10:41:27;;;;;;;5.70;4.60;;;23.90;99.90;;;;;;5018577;28;20029;-71
2021/06/07 10:43:58;;;;;;;3.83;3.50;;;23.80;99.90;;;;;;5023099;28;20121;-71
2021/06/07 10:46:36;;;;;;;5.55;5.05;;;23.90;99.90;;;;;;5019464;28;20467;-72
2021/06/07 10:49:04;;;;;;;4.90;3.45;;;24.00;99.90;;;;;;5020403;28;20032;-72
2021/06/07 10:51:33;;;;;;;11.18;4.80;;;23.90;99.90;;;;;;5016514;28;20033;-73
2021/06/07 10:54:35;;;;;;;6.60;4.95;;;23.80;99.90;;;;;;5022636;28;20137;-71
2021/06/07 10:57:25;;;;;;;4.57;3.85;;;23.70;99.90;;;;;;5015709;28;20021;-72
2021/06/07 11:00:01;;;;;;;4.70;4.07;;;23.80;99.90;;;;;;5021697;28;20026;-72
2021/06/07 11:02:34;;;;;;;4.15;3.75;;;24.10;99.90;;;;;;5020075;28;20033;-71
2021/06/07 11:05:09;;;;;;;4.03;3.63;;;24.20;99.90;;;;;;5019947;28;20030;-72
2021/06/07 11:07:35;;;;;;;3.70;3.40;;;24.20;99.90;;;;;;5021636;28;20034;-73
2021/06/07 11:10:24;;;;;;;4.90;4.40;;;24.40;99.90;;;;;;5020609;28;20431;-74
2021/06/07 11:12:52;;;;;;;4.18;3.85;;;24.40;99.90;;;;;;5014293;28;20042;-73
2021/06/07 11:15:21;;;;;;;4.80;3.33;;;24.50;99.90;;;;;;5024582;28;20466;-72
2021/06/07 11:17:49;;;;;;;7.43;3.25;;;24.50;99.90;;;;;;5015350;28;20052;-73
2021/06/07 11:20:31;;;;;;;5.22;4.72;;;24.20;99.90;;;;;;5018544;28;20050;-72
2021/06/07 11:23:07;;;;;;;4.30;3.33;;;24.10;99.90;;;;;;5020967;28;20088;-71
2021/06/07 11:25:53;;;;;;;3.88;3.50;;;24.10;99.90;;;;;;5023041;28;20022;-73
2021/06/07 11:29:01;;;;;;;4.00;3.70;;;24.60;99.90;;;;;;5015624;28;20080;-72
2021/06/07 11:31:32;;;;;;;4.90;4.43;;;24.60;99.90;;;;;;5009197;28;20486;-72
2021/06/07 11:34:07;;;;;;;5.57;3.60;;;24.80;99.90;;;;;;5016454;28;20030;-72
2021/06/07 11:36:51;;;;;;;8.75;4.95;;;24.80;99.90;;;;;;5024760;28;20076;-72
2021/06/07 11:39:18;;;;;;;4.93;3.22;;;24.90;99.90;;;;;;5015343;28;20483;-73
2021/06/07 11:41:47;;;;;;;4.03;3.63;;;25.00;99.90;;;;;;5016528;28;20124;-72
2021/06/07 11:44:15;;;;;;;5.78;4.07;;;24.90;99.90;;;;;;5021105;28;20103;-72
2021/06/07 11:46:40;;;;;;;4.93;4.50;;;25.10;99.90;;;;;;5018231;28;20037;-72
2021/06/07 11:49:16;;;;;;;5.72;5.20;;;24.80;99.10;;;;;;5018017;28;20030;-72
2021/06/07 11:51:44;;;;;;;5.78;5.18;;;24.90;99.90;;;;;;5016120;28;20026;-72
2021/06/07 11:54:25;;;;;;;5.75;5.22;;;24.90;98.80;;;;;;5017485;28;20030;-72
2021/06/07 11:56:59;;;;;;;5.32;4.10;;;25.00;99.90;;;;;;5014743;28;20041;-71
2021/06/07 11:59:27;;;;;;;5.07;4.57;;;25.30;99.90;;;;;;5016800;28;20014;-71
2021/06/07 12:01:53;;;;;;;7.47;4.55;;;25.30;99.90;;;;;;5013474;28;20033;-71
2021/06/07 12:04:31;;;;;;;5.07;4.25;;;25.20;99.20;;;;;;5017515;28;21049;-70
2021/06/07 12:06:59;;;;;;;4.15;3.60;;;25.30;99.90;;;;;;5016830;28;20068;-70
2021/06/07 12:09:26;;;;;;;5.10;4.60;;;25.00;99.90;;;;;;5012572;28;20025;-72
2021/06/07 12:11:52;;;;;;;4.20;3.80;;;25.10;99.90;;;;;;5014245;28;20041;-72
2021/06/07 12:14:25;;;;;;;4.78;3.58;;;25.10;98.70;;;;;;5018295;28;20045;-70
2021/06/07 12:16:51;;;;;;;5.00;4.00;;;25.10;97.10;;;;;;5017399;28;20469;-70
2021/06/07 12:19:16;;;;;;;3.92;3.10;;;25.20;97.20;;;;;;5013936;28;20025;-71
2021/06/07 12:21:42;;;;;;;3.20;2.90;;;25.40;99.90;;;;;;5012200;28;20041;-70
2021/06/07 12:24:14;;;;;;;4.15;3.80;;;24.90;99.90;;;;;;5011955;28;20423;-71
2021/06/07 12:29:34;;;;;;;4.40;3.20;;;25.30;99.80;;;;;;5012087;28;20036;-71
2021/06/07 12:32:16;;;;;;;4.60;3.03;;;25.30;99.40;;;;;;5016828;28;20079;-70
2021/06/07 12:35:00;;;;;;;4.30;3.28;;;25.20;99.30;;;;;;5013175;28;20041;-70
2021/06/07 12:37:30;;;;;;;3.70;2.83;;;24.90;99.50;;;;;;5022239;28;20049;-70
2021/06/07 12:40:10;;;;;;;5.55;3.17;;;24.90;99.80;;;;;;5013222;28;20025;-70
2021/06/07 12:42:36;;;;;;;2.70;2.50;;;25.20;99.60;;;;;;5018648;28;20034;-71
2021/06/07 12:45:11;;;;;;;3.10;2.75;;;25.10;99.50;;;;;;5018490;28;20026;-71
2021/06/07 12:47:36;;;;;;;4.63;2.50;;;25.10;98.70;;;;;;5014642;28;20026;-70
2021/06/07 12:50:20;;;;;;;5.75;3.13;;;25.20;99.30;;;;;;5013818;28;20026;-78
2021/06/07 12:52:48;;;;;;;3.55;2.58;;;25.10;99.90;;;;;;5013951;28;20475;-71